createdAt,value
2022-07-28T00:02:16.388Z,4.05
2022-07-28T00:07:24.188Z,4.06
2022-07-28T00:12:32.266Z,4.05
2022-07-28T00:17:40.188Z,4.05
2022-07-28T00:22:47.299Z,4.05
2022-07-28T00:27:55.127Z,4.05
2022-07-28T00:33:02.337Z,4.05
2022-07-28T00:38:09.550Z,4.05
2022-07-28T00:43:16.734Z,4.05
2022-07-28T00:48:25.224Z,4.05
2022-07-28T00:53:32.402Z,4.05
2022-07-28T00:58:38.916Z,4.05
2022-07-28T01:03:53.751Z,4.04
2022-07-28T01:08:59.823Z,4.04
2022-07-28T01:14:08.810Z,4.04
2022-07-28T01:19:16.150Z,4.03
2022-07-28T01:24:24.063Z,4.04
2022-07-28T01:29:31.776Z,4.04
2022-07-28T01:34:40.148Z,4.04
2022-07-28T01:39:48.423Z,4.03
2022-07-28T01:44:55.351Z,4.03
2022-07-28T01:50:04.350Z,4.04
2022-07-28T01:55:12.327Z,4.04
2022-07-28T02:00:20.134Z,4.04
2022-07-28T02:05:27.311Z,4.03
2022-07-28T02:10:34.533Z,4.03
2022-07-28T02:15:43.304Z,4.03
2022-07-28T02:20:51.857Z,4.03
2022-07-28T02:25:58.893Z,4.03
2022-07-28T02:31:06.800Z,4.04
2022-07-28T02:36:14.330Z,4.03
2022-07-28T02:41:21.263Z,4.02
2022-07-28T02:46:28.994Z,4.04
2022-07-28T02:51:36.534Z,4.02
2022-07-28T02:56:44.626Z,4.03
2022-07-28T03:01:58.185Z,4.02
2022-07-28T03:07:05.219Z,4.02
2022-07-28T03:12:12.764Z,4.02
2022-07-28T03:17:21.000Z,4.02
2022-07-28T03:22:28.772Z,4.02
2022-07-28T03:27:36.678Z,4.02
2022-07-28T03:32:43.771Z,4.02
2022-07-28T03:37:50.616Z,4.02
2022-07-28T03:42:58.467Z,4.01
2022-07-28T03:48:05.889Z,4.02
2022-07-28T03:53:13.915Z,4.03
2022-07-28T03:58:20.418Z,4.03
2022-07-28T04:03:27.700Z,4.02
2022-07-28T04:08:34.812Z,4.02
2022-07-28T04:13:43.303Z,4.02
2022-07-28T04:18:51.308Z,4.04
2022-07-28T04:24:01.992Z,4.03
2022-07-28T04:29:26.535Z,4.02
2022-07-28T04:34:33.894Z,4.03
2022-07-28T04:39:42.682Z,4.01
2022-07-28T04:44:50.815Z,4.03
2022-07-28T04:49:59.253Z,4.03
2022-07-28T04:55:06.699Z,4.04
2022-07-28T05:00:13.619Z,4.02
2022-07-28T05:05:21.812Z,4.03
2022-07-28T05:10:29.364Z,4.04
2022-07-28T05:15:37.176Z,4.03
2022-07-28T05:20:45.079Z,4.05
2022-07-28T05:25:54.005Z,4.04
2022-07-28T05:31:02.646Z,4.05
2022-07-28T05:36:09.817Z,4.06
2022-07-28T05:41:17.685Z,4.05
2022-07-28T05:46:25.182Z,4.06
2022-07-28T05:51:32.132Z,4.04
2022-07-28T05:56:39.979Z,4.06
2022-07-28T06:01:48.551Z,4.05
2022-07-28T06:06:58.137Z,4.06
2022-07-28T06:12:05.587Z,4.08
2022-07-28T06:17:12.962Z,4.07
2022-07-28T06:22:20.878Z,4.07
2022-07-28T06:27:28.998Z,4.08
2022-07-28T06:32:36.942Z,4.08
2022-07-28T06:37:45.878Z,4.08
2022-07-28T06:42:53.519Z,4.08
2022-07-28T06:48:00.892Z,4.07
2022-07-28T06:53:08.063Z,4.08
2022-07-28T06:58:16.304Z,4.07
2022-07-28T07:03:24.132Z,4.07
2022-07-28T07:08:32.291Z,4.07
2022-07-28T07:13:40.091Z,4.07
2022-07-28T07:18:47.294Z,4.08
2022-07-28T07:23:55.991Z,4.07
2022-07-28T07:29:04.294Z,4.07
2022-07-28T07:34:11.770Z,4.07
2022-07-28T07:39:19.656Z,4.07
2022-07-28T07:44:28.281Z,4.07
2022-07-28T07:49:35.613Z,4.07
2022-07-28T07:54:42.740Z,4.07
2022-07-28T07:59:51.293Z,4.07
2022-07-28T08:04:58.079Z,4.07
2022-07-28T08:10:07.038Z,4.07
2022-07-28T08:15:15.320Z,4.07
2022-07-28T08:20:23.470Z,4.07
2022-07-28T08:25:31.214Z,4.07
2022-07-28T08:30:38.032Z,4.07
2022-07-28T08:35:46.349Z,4.07
2022-07-28T08:40:53.373Z,4.07
2022-07-28T08:46:10.233Z,4.07
2022-07-28T08:51:18.987Z,4.07
2022-07-28T08:56:25.855Z,4.07
2022-07-28T09:01:32.422Z,4.07
2022-07-28T09:06:40.003Z,4.08
2022-07-28T09:11:47.660Z,4.07
2022-07-28T09:16:54.022Z,4.07
2022-07-28T09:22:02.365Z,4.07
2022-07-28T09:27:09.696Z,4.07
2022-07-28T09:32:16.951Z,4.07
2022-07-28T09:37:24.777Z,4.07
2022-07-28T09:42:32.621Z,4.07
2022-07-28T09:47:40.717Z,4.07
2022-07-28T09:52:48.251Z,4.07
2022-07-28T09:57:55.637Z,4.07
2022-07-28T10:03:02.378Z,4.08
2022-07-28T10:08:10.633Z,4.07
2022-07-28T10:13:17.054Z,4.08
2022-07-28T10:18:26.186Z,4.08
2022-07-28T10:23:34.055Z,4.08
2022-07-28T10:28:42.533Z,4.07
2022-07-28T10:33:50.841Z,4.08
2022-07-28T10:38:58.416Z,4.07
2022-07-28T10:44:06.527Z,4.07
2022-07-28T10:49:15.522Z,4.07
2022-07-28T10:54:23.665Z,4.07
2022-07-28T10:59:30.883Z,4.07
2022-07-28T11:04:38.935Z,4.07
2022-07-28T11:09:45.897Z,4.08
2022-07-28T11:14:53.711Z,4.07
2022-07-28T11:20:01.577Z,4.08
2022-07-28T11:25:09.442Z,4.07
2022-07-28T11:30:17.215Z,4.08
2022-07-28T11:35:24.958Z,4.08
2022-07-28T11:40:33.843Z,4.08
2022-07-28T11:45:40.152Z,4.08
2022-07-28T11:50:48.058Z,4.08
2022-07-28T11:56:02.694Z,4.07
2022-07-28T12:01:11.208Z,4.08
2022-07-28T12:06:19.353Z,4.08
2022-07-28T12:11:26.385Z,4.08
2022-07-28T12:16:34.985Z,4.08
2022-07-28T12:21:43.234Z,4.08
2022-07-28T12:26:49.861Z,4.08
2022-07-28T12:31:57.693Z,4.08
2022-07-28T12:37:05.006Z,4.08
2022-07-28T12:42:12.095Z,4.08
2022-07-28T12:47:20.487Z,4.08
2022-07-28T12:52:28.347Z,4.08
2022-07-28T12:57:34.975Z,4.08
2022-07-28T13:02:42.173Z,4.08
2022-07-28T13:07:49.537Z,4.08
2022-07-28T13:12:56.571Z,4.08
2022-07-28T13:18:04.898Z,4.08
2022-07-28T13:23:12.376Z,4.08
2022-07-28T13:28:21.952Z,4.08
2022-07-28T13:33:29.265Z,4.08
2022-07-28T13:38:37.254Z,4.08
2022-07-28T13:43:44.707Z,4.08
2022-07-28T13:48:52.566Z,4.08
2022-07-28T13:54:00.455Z,4.08
2022-07-28T14:03:44.164Z,4.08
2022-07-28T14:08:49.504Z,4.08
2022-07-28T14:13:56.889Z,4.08
2022-07-28T14:19:03.314Z,4.09
2022-07-28T14:24:12.349Z,4.08
2022-07-28T14:29:19.683Z,4.08
2022-07-28T14:34:28.007Z,4.08
2022-07-28T14:41:07.505Z,4.08
2022-07-28T14:46:12.738Z,4.08
2022-07-28T14:51:20.546Z,4.08
2022-07-28T14:56:27.138Z,4.08
2022-07-28T15:01:35.664Z,4.09
2022-07-28T15:06:42.913Z,4.09
2022-07-28T15:11:50.389Z,4.09
2022-07-28T15:16:58.903Z,4.09
2022-07-28T15:22:06.342Z,4.08
2022-07-28T15:27:13.810Z,4.09
2022-07-28T15:32:21.955Z,4.09
2022-07-28T15:37:30.673Z,4.09
2022-07-28T15:42:39.091Z,4.09
2022-07-28T15:47:46.234Z,4.08
2022-07-28T15:52:53.880Z,4.10
2022-07-28T15:58:01.994Z,4.09
2022-07-28T16:03:09.056Z,4.08
2022-07-28T16:08:16.893Z,4.08
2022-07-28T16:13:25.351Z,4.08
2022-07-28T16:18:31.931Z,4.08
2022-07-28T16:23:39.138Z,4.08
2022-07-28T16:28:46.931Z,4.08
2022-07-28T16:33:55.899Z,4.08
2022-07-28T16:39:02.810Z,4.08
2022-07-28T16:44:10.095Z,4.08
2022-07-28T16:49:16.417Z,4.07
2022-07-28T16:54:24.778Z,4.07
2022-07-28T16:59:32.900Z,4.08
2022-07-28T17:04:40.570Z,4.08
2022-07-28T17:09:48.079Z,4.08
2022-07-28T17:14:54.971Z,4.09
2022-07-28T17:20:01.546Z,4.08
2022-07-28T17:25:08.140Z,4.09
2022-07-28T17:30:15.939Z,4.08
2022-07-28T17:35:24.757Z,4.07
2022-07-28T17:40:33.364Z,4.08
2022-07-28T17:45:42.064Z,4.08
2022-07-28T17:50:49.487Z,4.08
2022-07-28T17:55:57.638Z,4.09
2022-07-28T18:01:05.628Z,4.07
2022-07-28T18:06:12.681Z,4.07
2022-07-28T18:11:19.295Z,4.07
2022-07-28T18:16:26.501Z,4.08
2022-07-28T18:21:33.070Z,4.08
2022-07-28T18:26:39.683Z,4.07
2022-07-28T18:31:47.401Z,4.08
2022-07-28T18:36:55.808Z,4.07
2022-07-28T18:42:04.626Z,4.07
2022-07-28T18:47:12.545Z,4.07
2022-07-28T18:52:20.126Z,4.07
2022-07-28T18:57:33.094Z,4.07
2022-07-28T19:02:40.439Z,4.07
2022-07-28T19:07:47.566Z,4.06
2022-07-28T19:12:56.222Z,4.07
2022-07-28T19:18:03.926Z,4.07
2022-07-28T19:23:11.620Z,4.07
2022-07-28T19:28:19.459Z,4.06
2022-07-28T19:33:26.884Z,4.07
2022-07-28T19:38:33.964Z,4.06
2022-07-28T19:43:41.500Z,4.07
2022-07-28T19:48:48.584Z,4.05
2022-07-28T19:53:55.442Z,4.05
2022-07-28T19:59:03.770Z,4.06
2022-07-28T20:04:11.192Z,4.06
2022-07-28T20:09:18.382Z,4.06
2022-07-28T20:14:27.207Z,4.06
2022-07-28T20:19:34.652Z,4.06
2022-07-28T20:24:41.854Z,4.05
2022-07-28T20:29:50.541Z,4.06
2022-07-28T20:34:59.163Z,4.05
2022-07-28T20:40:07.575Z,4.05
2022-07-28T20:45:16.340Z,4.04
2022-07-28T20:50:23.978Z,4.05
2022-07-28T20:55:30.805Z,4.04
2022-07-28T21:00:38.077Z,4.06
2022-07-28T21:05:46.871Z,4.05
2022-07-28T21:10:55.519Z,4.05
2022-07-28T21:16:03.369Z,4.05
2022-07-28T21:21:18.907Z,4.05
2022-07-28T21:26:25.533Z,4.05
2022-07-28T21:31:33.903Z,4.04
2022-07-28T21:36:41.666Z,4.05
2022-07-28T21:41:49.461Z,4.04
2022-07-28T21:46:57.466Z,4.05
2022-07-28T21:52:05.679Z,4.04
2022-07-28T21:57:14.317Z,4.05
2022-07-28T22:02:22.774Z,4.03
2022-07-28T22:07:29.603Z,4.04
2022-07-28T22:12:37.416Z,4.04
2022-07-28T22:17:44.916Z,4.02
2022-07-28T22:22:52.528Z,4.04
2022-07-28T22:27:59.835Z,4.03
2022-07-28T22:33:06.241Z,4.03
2022-07-28T22:38:14.049Z,4.03
2022-07-28T22:43:20.621Z,4.04
2022-07-28T22:48:28.070Z,4.02
2022-07-28T22:53:37.685Z,4.03
2022-07-28T22:58:45.654Z,4.04
2022-07-28T23:03:52.718Z,4.04
2022-07-28T23:08:59.772Z,4.03
2022-07-28T23:14:06.986Z,4.03
2022-07-28T23:19:14.622Z,4.02
2022-07-28T23:24:21.722Z,4.02
2022-07-28T23:29:30.379Z,4.03
2022-07-28T23:34:38.211Z,4.03
2022-07-28T23:39:45.537Z,4.02
2022-07-28T23:44:54.148Z,4.03
2022-07-28T23:50:02.489Z,4.02
2022-07-28T23:55:09.693Z,4.03
